sensor_id;sensor_type;location;lat;lon;timestamp;temperature;humidity
35796;DHT22;21916;52.428;13.302;2022-09-09T00:02:22;14.50;99.90
35796;DHT22;21916;52.428;13.302;2022-09-09T00:04:59;14.40;99.90
35796;DHT22;21916;52.428;13.302;2022-09-09T00:21:26;14.40;99.90
35796;DHT22;21916;52.428;13.302;2022-09-09T00:23:54;14.40;99.90
35796;DHT22;21916;52.428;13.302;2022-09-09T00:29:08;14.40;99.90
35796;DHT22;21916;52.428;13.302;2022-09-09T00:31:35;14.30;99.90
35796;DHT22;21916;52.428;13.302;2022-09-09T00:34:11;14.20;99.90
35796;DHT22;21916;52.428;13.302;2022-09-09T00:36:39;14.30;99.90
35796;DHT22;21916;52.428;13.302;2022-09-09T00:39:05;14.20;99.90
35796;DHT22;21916;52.428;13.302;2022-09-09T00:42:10;14.20;99.90
35796;DHT22;21916;52.428;13.302;2022-09-09T00:44:38;14.20;99.90
35796;DHT22;21916;52.428;13.302;2022-09-09T00:50:03;14.20;99.90
35796;DHT22;21916;52.428;13.302;2022-09-09T00:52:43;14.10;99.90
35796;DHT22;21916;52.428;13.302;2022-09-09T00:55:22;14.00;99.90
35796;DHT22;21916;52.428;13.302;2022-09-09T00:57:52;14.10;99.90
35796;DHT22;21916;52.428;13.302;2022-09-09T01:00:31;14.10;99.90
35796;DHT22;21916;52.428;13.302;2022-09-09T01:17:25;13.80;99.90
35796;DHT22;21916;52.428;13.302;2022-09-09T01:20:18;13.90;99.90
35796;DHT22;21916;52.428;13.302;2022-09-09T01:28:27;13.80;99.90
35796;DHT22;21916;52.428;13.302;2022-09-09T01:31:00;13.80;99.90
35796;DHT22;21916;52.428;13.302;2022-09-09T01:33:33;13.70;99.90
35796;DHT22;21916;52.428;13.302;2022-09-09T01:36:14;13.70;99.90
35796;DHT22;21916;52.428;13.302;2022-09-09T01:38:46;13.70;99.90
35796;DHT22;21916;52.428;13.302;2022-09-09T01:41:13;13.70;99.90
35796;DHT22;21916;52.428;13.302;2022-09-09T01:44:02;13.80;99.90
35796;DHT22;21916;52.428;13.302;2022-09-09T01:46:31;13.70;99.90
35796;DHT22;21916;52.428;13.302;2022-09-09T01:49:00;13.70;99.90
35796;DHT22;21916;52.428;13.302;2022-09-09T01:51:28;13.60;99.90
35796;DHT22;21916;52.428;13.302;2022-09-09T01:53:55;13.70;99.90
35796;DHT22;21916;52.428;13.302;2022-09-09T01:59:41;13.60;99.90
35796;DHT22;21916;52.428;13.302;2022-09-09T02:08:34;13.50;99.90
35796;DHT22;21916;52.428;13.302;2022-09-09T02:11:17;13.50;99.90
35796;DHT22;21916;52.428;13.302;2022-09-09T02:13:53;13.50;99.90
35796;DHT22;21916;52.428;13.302;2022-09-09T02:16:40;13.40;99.90
35796;DHT22;21916;52.428;13.302;2022-09-09T02:19:25;13.50;99.90
35796;DHT22;21916;52.428;13.302;2022-09-09T02:22:09;13.50;99.90
35796;DHT22;21916;52.428;13.302;2022-09-09T02:24:39;13.50;99.90
35796;DHT22;21916;52.428;13.302;2022-09-09T02:27:17;13.50;99.90
35796;DHT22;21916;52.428;13.302;2022-09-09T02:29:44;13.40;99.90
35796;DHT22;21916;52.428;13.302;2022-09-09T02:32:22;13.50;99.90
35796;DHT22;21916;52.428;13.302;2022-09-09T02:34:52;13.50;99.90
35796;DHT22;21916;52.428;13.302;2022-09-09T02:37:23;13.50;99.90
35796;DHT22;21916;52.428;13.302;2022-09-09T02:39:53;13.50;99.90
35796;DHT22;21916;52.428;13.302;2022-09-09T02:42:22;13.40;99.90
35796;DHT22;21916;52.428;13.302;2022-09-09T02:44:51;13.40;99.90
35796;DHT22;21916;52.428;13.302;2022-09-09T02:47:42;13.40;99.90
35796;DHT22;21916;52.428;13.302;2022-09-09T02:55:38;13.30;99.90
35796;DHT22;21916;52.428;13.302;2022-09-09T02:58:08;13.30;99.90
35796;DHT22;21916;52.428;13.302;2022-09-09T03:00:36;13.30;99.90
35796;DHT22;21916;52.428;13.302;2022-09-09T03:03:07;13.30;99.90
35796;DHT22;21916;52.428;13.302;2022-09-09T03:05:35;13.20;99.90
35796;DHT22;21916;52.428;13.302;2022-09-09T03:08:03;13.20;99.90
35796;DHT22;21916;52.428;13.302;2022-09-09T03:10:29;13.20;99.90
35796;DHT22;21916;52.428;13.302;2022-09-09T03:12:55;13.10;99.90
35796;DHT22;21916;52.428;13.302;2022-09-09T03:15:21;13.20;99.90
35796;DHT22;21916;52.428;13.302;2022-09-09T03:17:47;13.20;99.90
35796;DHT22;21916;52.428;13.302;2022-09-09T03:20:13;13.20;99.90
35796;DHT22;21916;52.428;13.302;2022-09-09T03:22:39;13.20;99.90
35796;DHT22;21916;52.428;13.302;2022-09-09T03:25:06;13.30;99.90
35796;DHT22;21916;52.428;13.302;2022-09-09T03:27:35;13.20;99.90
35796;DHT22;21916;52.428;13.302;2022-09-09T03:30:03;13.20;99.90
35796;DHT22;21916;52.428;13.302;2022-09-09T03:32:30;13.20;99.90
35796;DHT22;21916;52.428;13.302;2022-09-09T03:34:57;13.20;99.90
35796;DHT22;21916;52.428;13.302;2022-09-09T03:37:23;13.10;99.90
35796;DHT22;21916;52.428;13.302;2022-09-09T03:39:50;13.10;99.90
35796;DHT22;21916;52.428;13.302;2022-09-09T03:42:17;13.20;99.90
35796;DHT22;21916;52.428;13.302;2022-09-09T03:44:49;13.10;99.90
35796;DHT22;21916;52.428;13.302;2022-09-09T03:47:18;13.00;99.90
35796;DHT22;21916;52.428;13.302;2022-09-09T03:49:45;13.10;99.90
35796;DHT22;21916;52.428;13.302;2022-09-09T03:52:12;13.10;99.90
35796;DHT22;21916;52.428;13.302;2022-09-09T03:54:38;13.10;99.90
35796;DHT22;21916;52.428;13.302;2022-09-09T03:57:05;13.00;99.90
35796;DHT22;21916;52.428;13.302;2022-09-09T03:59:31;13.00;99.90
35796;DHT22;21916;52.428;13.302;2022-09-09T04:01:57;13.00;99.90
35796;DHT22;21916;52.428;13.302;2022-09-09T04:04:25;13.00;99.90
35796;DHT22;21916;52.428;13.302;2022-09-09T04:06:53;13.00;99.90
35796;DHT22;21916;52.428;13.302;2022-09-09T04:09:19;13.00;99.90
35796;DHT22;21916;52.428;13.302;2022-09-09T04:11:45;13.00;99.90
35796;DHT22;21916;52.428;13.302;2022-09-09T04:14:12;13.00;99.90
35796;DHT22;21916;52.428;13.302;2022-09-09T04:16:38;13.00;99.90
35796;DHT22;21916;52.428;13.302;2022-09-09T04:19:05;13.00;99.90
35796;DHT22;21916;52.428;13.302;2022-09-09T04:21:35;13.00;99.90
35796;DHT22;21916;52.428;13.302;2022-09-09T04:24:02;13.00;99.90
35796;DHT22;21916;52.428;13.302;2022-09-09T04:26:28;12.90;99.90
35796;DHT22;21916;52.428;13.302;2022-09-09T04:28:55;12.90;99.90
35796;DHT22;21916;52.428;13.302;2022-09-09T04:31:22;12.90;99.90
35796;DHT22;21916;52.428;13.302;2022-09-09T04:33:54;13.00;99.90
35796;DHT22;21916;52.428;13.302;2022-09-09T04:36:20;13.00;99.90
35796;DHT22;21916;52.428;13.302;2022-09-09T04:38:48;13.00;99.90
35796;DHT22;21916;52.428;13.302;2022-09-09T04:41:15;12.90;99.90
35796;DHT22;21916;52.428;13.302;2022-09-09T04:43:44;13.00;99.90
35796;DHT22;21916;52.428;13.302;2022-09-09T04:46:11;13.00;99.90
35796;DHT22;21916;52.428;13.302;2022-09-09T04:48:37;12.90;99.90
35796;DHT22;21916;52.428;13.302;2022-09-09T04:51:08;13.00;99.90
35796;DHT22;21916;52.428;13.302;2022-09-09T04:53:36;13.00;99.90
35796;DHT22;21916;52.428;13.302;2022-09-09T04:56:10;13.10;99.90
35796;DHT22;21916;52.428;13.302;2022-09-09T04:58:41;13.10;99.90
35796;DHT22;21916;52.428;13.302;2022-09-09T05:01:12;13.10;99.90
35796;DHT22;21916;52.428;13.302;2022-09-09T05:03:40;13.10;99.90
35796;DHT22;21916;52.428;13.302;2022-09-09T05:06:12;13.20;99.90
35796;DHT22;21916;52.428;13.302;2022-09-09T05:08:41;13.20;99.90
35796;DHT22;21916;52.428;13.302;2022-09-09T05:13:41;13.30;99.90
35796;DHT22;21916;52.428;13.302;2022-09-09T05:16:08;13.30;99.90
35796;DHT22;21916;52.428;13.302;2022-09-09T05:18:37;13.40;99.90
35796;DHT22;21916;52.428;13.302;2022-09-09T05:21:03;13.40;99.90
35796;DHT22;21916;52.428;13.302;2022-09-09T05:23:30;13.40;99.90
35796;DHT22;21916;52.428;13.302;2022-09-09T05:25:59;13.50;99.90
35796;DHT22;21916;52.428;13.302;2022-09-09T05:28:26;13.60;99.90
35796;DHT22;21916;52.428;13.302;2022-09-09T05:30:57;13.70;99.90
35796;DHT22;21916;52.428;13.302;2022-09-09T05:33:24;13.80;99.90
35796;DHT22;21916;52.428;13.302;2022-09-09T05:35:59;13.90;99.90
35796;DHT22;21916;52.428;13.302;2022-09-09T05:38:26;14.00;99.90
35796;DHT22;21916;52.428;13.302;2022-09-09T05:40:52;14.00;99.90
35796;DHT22;21916;52.428;13.302;2022-09-09T05:43:19;14.10;99.90
35796;DHT22;21916;52.428;13.302;2022-09-09T05:45:47;14.20;99.90
35796;DHT22;21916;52.428;13.302;2022-09-09T05:48:17;14.20;99.90
35796;DHT22;21916;52.428;13.302;2022-09-09T05:50:52;14.30;99.90
35796;DHT22;21916;52.428;13.302;2022-09-09T05:53:18;14.30;99.90
35796;DHT22;21916;52.428;13.302;2022-09-09T05:55:44;14.40;99.90
35796;DHT22;21916;52.428;13.302;2022-09-09T05:58:11;14.50;99.90
35796;DHT22;21916;52.428;13.302;2022-09-09T06:00:38;14.60;99.90
35796;DHT22;21916;52.428;13.302;2022-09-09T06:03:05;14.70;99.90
35796;DHT22;21916;52.428;13.302;2022-09-09T06:05:31;14.80;99.90
35796;DHT22;21916;52.428;13.302;2022-09-09T06:07:58;14.70;99.90
35796;DHT22;21916;52.428;13.302;2022-09-09T06:10:24;14.70;99.90
35796;DHT22;21916;52.428;13.302;2022-09-09T06:12:52;14.80;99.90
35796;DHT22;21916;52.428;13.302;2022-09-09T06:15:19;14.80;99.90
35796;DHT22;21916;52.428;13.302;2022-09-09T06:17:45;14.90;99.90
35796;DHT22;21916;52.428;13.302;2022-09-09T06:20:12;15.00;99.90
35796;DHT22;21916;52.428;13.302;2022-09-09T06:22:40;15.00;99.90
35796;DHT22;21916;52.428;13.302;2022-09-09T06:25:08;15.10;99.90
35796;DHT22;21916;52.428;13.302;2022-09-09T06:27:35;15.20;99.90
35796;DHT22;21916;52.428;13.302;2022-09-09T06:30:01;15.20;99.90
35796;DHT22;21916;52.428;13.302;2022-09-09T06:32:29;15.20;99.90
35796;DHT22;21916;52.428;13.302;2022-09-09T06:34:55;15.20;99.90
35796;DHT22;21916;52.428;13.302;2022-09-09T06:37:21;15.30;99.90
35796;DHT22;21916;52.428;13.302;2022-09-09T06:39:50;15.20;99.90
35796;DHT22;21916;52.428;13.302;2022-09-09T06:42:16;15.20;99.90
35796;DHT22;21916;52.428;13.302;2022-09-09T06:44:55;15.20;99.90
35796;DHT22;21916;52.428;13.302;2022-09-09T06:47:33;15.20;99.90
35796;DHT22;21916;52.428;13.302;2022-09-09T06:49:59;15.30;99.90
35796;DHT22;21916;52.428;13.302;2022-09-09T06:52:25;15.40;99.90
35796;DHT22;21916;52.428;13.302;2022-09-09T06:54:53;15.60;99.90
35796;DHT22;21916;52.428;13.302;2022-09-09T06:57:19;15.90;99.90
35796;DHT22;21916;52.428;13.302;2022-09-09T06:59:45;16.10;99.90
35796;DHT22;21916;52.428;13.302;2022-09-09T07:02:11;16.30;99.90
35796;DHT22;21916;52.428;13.302;2022-09-09T07:04:38;16.40;99.90
35796;DHT22;21916;52.428;13.302;2022-09-09T07:07:04;16.60;99.90
35796;DHT22;21916;52.428;13.302;2022-09-09T07:09:30;16.70;99.90
35796;DHT22;21916;52.428;13.302;2022-09-09T07:11:57;17.00;99.90
35796;DHT22;21916;52.428;13.302;2022-09-09T07:14:26;17.10;99.90
35796;DHT22;21916;52.428;13.302;2022-09-09T07:16:59;17.20;99.90
35796;DHT22;21916;52.428;13.302;2022-09-09T07:19:29;17.30;99.90
35796;DHT22;21916;52.428;13.302;2022-09-09T07:21:55;17.50;99.90
35796;DHT22;21916;52.428;13.302;2022-09-09T07:24:23;17.50;99.90
35796;DHT22;21916;52.428;13.302;2022-09-09T07:26:50;17.70;99.90
35796;DHT22;21916;52.428;13.302;2022-09-09T07:29:18;17.80;99.90
35796;DHT22;21916;52.428;13.302;2022-09-09T07:31:44;18.10;99.90
35796;DHT22;21916;52.428;13.302;2022-09-09T07:34:15;18.20;99.90
35796;DHT22;21916;52.428;13.302;2022-09-09T07:36:42;18.40;99.90
35796;DHT22;21916;52.428;13.302;2022-09-09T07:39:20;18.30;99.90
35796;DHT22;21916;52.428;13.302;2022-09-09T07:41:51;18.40;99.90
35796;DHT22;21916;52.428;13.302;2022-09-09T07:44:24;18.70;99.90
35796;DHT22;21916;52.428;13.302;2022-09-09T07:47:01;19.00;99.90
35796;DHT22;21916;52.428;13.302;2022-09-09T07:49:33;19.20;99.90
35796;DHT22;21916;52.428;13.302;2022-09-09T07:52:05;19.40;99.90
35796;DHT22;21916;52.428;13.302;2022-09-09T07:54:36;19.50;99.90
35796;DHT22;21916;52.428;13.302;2022-09-09T07:57:05;19.70;99.90
35796;DHT22;21916;52.428;13.302;2022-09-09T07:59:34;19.90;99.90
35796;DHT22;21916;52.428;13.302;2022-09-09T08:02:09;20.10;99.90
35796;DHT22;21916;52.428;13.302;2022-09-09T08:04:38;19.90;99.90
35796;DHT22;21916;52.428;13.302;2022-09-09T08:07:05;19.90;99.90
35796;DHT22;21916;52.428;13.302;2022-09-09T08:09:39;19.80;99.90
35796;DHT22;21916;52.428;13.302;2022-09-09T08:12:12;19.70;99.90
35796;DHT22;21916;52.428;13.302;2022-09-09T08:14:42;19.70;99.90
35796;DHT22;21916;52.428;13.302;2022-09-09T08:17:16;19.60;99.90
35796;DHT22;21916;52.428;13.302;2022-09-09T08:19:50;19.50;99.90
35796;DHT22;21916;52.428;13.302;2022-09-09T08:22:25;19.40;99.90
35796;DHT22;21916;52.428;13.302;2022-09-09T08:24:52;19.60;99.90
35796;DHT22;21916;52.428;13.302;2022-09-09T08:27:27;19.50;99.90
35796;DHT22;21916;52.428;13.302;2022-09-09T08:29:55;19.60;99.90
35796;DHT22;21916;52.428;13.302;2022-09-09T08:32:26;19.70;99.90
35796;DHT22;21916;52.428;13.302;2022-09-09T08:34:53;19.70;99.90
35796;DHT22;21916;52.428;13.302;2022-09-09T08:37:30;19.70;99.90
35796;DHT22;21916;52.428;13.302;2022-09-09T08:39:58;19.70;99.90
35796;DHT22;21916;52.428;13.302;2022-09-09T08:42:32;19.70;99.90
35796;DHT22;21916;52.428;13.302;2022-09-09T08:45:35;19.80;99.90
35796;DHT22;21916;52.428;13.302;2022-09-09T08:48:30;19.90;99.90
35796;DHT22;21916;52.428;13.302;2022-09-09T08:51:03;20.10;99.90
35796;DHT22;21916;52.428;13.302;2022-09-09T08:53:41;20.10;99.90
35796;DHT22;21916;52.428;13.302;2022-09-09T08:56:18;20.20;99.90
35796;DHT22;21916;52.428;13.302;2022-09-09T08:58:52;20.20;99.90
35796;DHT22;21916;52.428;13.302;2022-09-09T09:01:42;20.30;99.90
35796;DHT22;21916;52.428;13.302;2022-09-09T09:10:18;20.50;99.90
35796;DHT22;21916;52.428;13.302;2022-09-09T09:12:50;20.60;99.90
35796;DHT22;21916;52.428;13.302;2022-09-09T09:15:30;20.70;99.90
35796;DHT22;21916;52.428;13.302;2022-09-09T09:17:57;20.60;99.90
35796;DHT22;21916;52.428;13.302;2022-09-09T09:21:17;20.90;99.90
35796;DHT22;21916;52.428;13.302;2022-09-09T09:23:48;21.40;99.90
35796;DHT22;21916;52.428;13.302;2022-09-09T09:26:19;21.60;99.90
35796;DHT22;21916;52.428;13.302;2022-09-09T09:28:48;21.30;99.90
35796;DHT22;21916;52.428;13.302;2022-09-09T09:31:16;21.20;99.90
35796;DHT22;21916;52.428;13.302;2022-09-09T09:33:54;21.30;99.90
35796;DHT22;21916;52.428;13.302;2022-09-09T09:41:49;21.50;99.90
35796;DHT22;21916;52.428;13.302;2022-09-09T09:44:34;21.40;99.90
35796;DHT22;21916;52.428;13.302;2022-09-09T09:47:17;21.20;99.90
35796;DHT22;21916;52.428;13.302;2022-09-09T09:52:25;21.40;99.90
35796;DHT22;21916;52.428;13.302;2022-09-09T09:54:52;21.60;99.90
35796;DHT22;21916;52.428;13.302;2022-09-09T09:57:24;21.50;99.90
35796;DHT22;21916;52.428;13.302;2022-09-09T10:00:02;21.30;99.90
35796;DHT22;21916;52.428;13.302;2022-09-09T10:02:42;21.40;99.90
35796;DHT22;21916;52.428;13.302;2022-09-09T10:07:45;22.20;99.90
35796;DHT22;21916;52.428;13.302;2022-09-09T10:10:34;22.50;99.90
35796;DHT22;21916;52.428;13.302;2022-09-09T10:21:25;22.80;99.90
35796;DHT22;21916;52.428;13.302;2022-09-09T10:24:14;23.10;99.90
35796;DHT22;21916;52.428;13.302;2022-09-09T10:30:00;22.80;99.90
35796;DHT22;21916;52.428;13.302;2022-09-09T10:32:37;23.00;99.90
35796;DHT22;21916;52.428;13.302;2022-09-09T10:35:33;23.20;99.90
35796;DHT22;21916;52.428;13.302;2022-09-09T10:38:18;23.20;99.90
35796;DHT22;21916;52.428;13.302;2022-09-09T10:46:27;23.30;99.90
35796;DHT22;21916;52.428;13.302;2022-09-09T10:49:18;23.80;99.90
35796;DHT22;21916;52.428;13.302;2022-09-09T10:54:45;26.50;99.90
35796;DHT22;21916;52.428;13.302;2022-09-09T10:57:29;27.90;98.10
35796;DHT22;21916;52.428;13.302;2022-09-09T11:00:05;28.30;96.20
35796;DHT22;21916;52.428;13.302;2022-09-09T11:02:33;28.70;95.20
35796;DHT22;21916;52.428;13.302;2022-09-09T11:05:17;28.10;94.90
35796;DHT22;21916;52.428;13.302;2022-09-09T11:07:59;28.60;94.80
35796;DHT22;21916;52.428;13.302;2022-09-09T11:19:01;30.40;91.60
35796;DHT22;21916;52.428;13.302;2022-09-09T11:21:32;30.30;90.60
35796;DHT22;21916;52.428;13.302;2022-09-09T11:24:06;29.90;91.20
35796;DHT22;21916;52.428;13.302;2022-09-09T11:26:44;28.80;91.50
35796;DHT22;21916;52.428;13.302;2022-09-09T11:29:40;27.40;92.80
35796;DHT22;21916;52.428;13.302;2022-09-09T11:35:44;30.40;91.20
35796;DHT22;21916;52.428;13.302;2022-09-09T11:38:19;30.40;90.30
35796;DHT22;21916;52.428;13.302;2022-09-09T11:40:53;29.50;91.20
35796;DHT22;21916;52.428;13.302;2022-09-09T11:43:30;30.30;90.60
35796;DHT22;21916;52.428;13.302;2022-09-09T11:45:59;30.00;89.70
35796;DHT22;21916;52.428;13.302;2022-09-09T11:51:02;28.70;90.90
35796;DHT22;21916;52.428;13.302;2022-09-09T11:53:31;27.60;91.90
35796;DHT22;21916;52.428;13.302;2022-09-09T11:56:09;28.80;91.50
35796;DHT22;21916;52.428;13.302;2022-09-09T11:58:53;31.10;90.30
35796;DHT22;21916;52.428;13.302;2022-09-09T12:01:34;32.90;86.20
35796;DHT22;21916;52.428;13.302;2022-09-09T12:07:03;34.00;82.40
35796;DHT22;21916;52.428;13.302;2022-09-09T12:17:27;36.10;71.30
35796;DHT22;21916;52.428;13.302;2022-09-09T12:20:08;35.30;70.30
35796;DHT22;21916;52.428;13.302;2022-09-09T12:22:55;33.80;71.90
35796;DHT22;21916;52.428;13.302;2022-09-09T12:31:18;30.50;77.60
35796;DHT22;21916;52.428;13.302;2022-09-09T12:33:46;29.90;78.40
35796;DHT22;21916;52.428;13.302;2022-09-09T12:36:22;29.30;79.20
35796;DHT22;21916;52.428;13.302;2022-09-09T12:38:49;28.60;80.20
35796;DHT22;21916;52.428;13.302;2022-09-09T12:41:24;27.90;83.50
35796;DHT22;21916;52.428;13.302;2022-09-09T12:43:51;27.40;85.10
35796;DHT22;21916;52.428;13.302;2022-09-09T12:46:32;27.00;85.90
35796;DHT22;21916;52.428;13.302;2022-09-09T12:48:59;26.50;86.90
35796;DHT22;21916;52.428;13.302;2022-09-09T12:51:28;26.10;88.70
35796;DHT22;21916;52.428;13.302;2022-09-09T12:53:55;26.10;89.00
35796;DHT22;21916;52.428;13.302;2022-09-09T12:56:24;25.80;90.80
35796;DHT22;21916;52.428;13.302;2022-09-09T12:58:53;25.50;90.40
35796;DHT22;21916;52.428;13.302;2022-09-09T13:01:26;25.40;90.70
35796;DHT22;21916;52.428;13.302;2022-09-09T13:03:52;25.00;91.50
35796;DHT22;21916;52.428;13.302;2022-09-09T13:06:26;25.00;91.90
35796;DHT22;21916;52.428;13.302;2022-09-09T13:08:53;24.90;91.60
35796;DHT22;21916;52.428;13.302;2022-09-09T13:11:25;24.90;92.20
35796;DHT22;21916;52.428;13.302;2022-09-09T13:13:55;25.00;92.40
35796;DHT22;21916;52.428;13.302;2022-09-09T13:16:33;24.80;92.60
35796;DHT22;21916;52.428;13.302;2022-09-09T13:19:02;24.90;92.50
35796;DHT22;21916;52.428;13.302;2022-09-09T13:21:37;25.00;92.40
35796;DHT22;21916;52.428;13.302;2022-09-09T13:24:32;25.10;92.40
35796;DHT22;21916;52.428;13.302;2022-09-09T13:27:01;26.00;91.70
35796;DHT22;21916;52.428;13.302;2022-09-09T13:29:28;26.60;90.50
35796;DHT22;21916;52.428;13.302;2022-09-09T13:32:04;26.70;90.20
35796;DHT22;21916;52.428;13.302;2022-09-09T13:34:34;27.70;89.30
35796;DHT22;21916;52.428;13.302;2022-09-09T13:37:03;29.60;85.80
35796;DHT22;21916;52.428;13.302;2022-09-09T13:39:36;31.70;83.00
35796;DHT22;21916;52.428;13.302;2022-09-09T13:42:03;33.70;77.30
35796;DHT22;21916;52.428;13.302;2022-09-09T13:44:34;33.70;76.30
35796;DHT22;21916;52.428;13.302;2022-09-09T13:49:38;32.80;74.80
35796;DHT22;21916;52.428;13.302;2022-09-09T13:52:14;30.40;77.50
35796;DHT22;21916;52.428;13.302;2022-09-09T13:54:42;29.50;79.50
35796;DHT22;21916;52.428;13.302;2022-09-09T13:57:18;28.90;81.00
35796;DHT22;21916;52.428;13.302;2022-09-09T13:59:46;30.20;79.90
35796;DHT22;21916;52.428;13.302;2022-09-09T14:02:13;30.60;78.90
35796;DHT22;21916;52.428;13.302;2022-09-09T14:04:39;31.80;77.20
35796;DHT22;21916;52.428;13.302;2022-09-09T14:07:13;32.00;76.40
35796;DHT22;21916;52.428;13.302;2022-09-09T14:09:40;32.90;75.50
35796;DHT22;21916;52.428;13.302;2022-09-09T14:12:12;33.60;74.20
35796;DHT22;21916;52.428;13.302;2022-09-09T14:14:38;34.00;73.60
35796;DHT22;21916;52.428;13.302;2022-09-09T14:17:04;33.60;72.80
35796;DHT22;21916;52.428;13.302;2022-09-09T14:19:30;33.60;71.80
35796;DHT22;21916;52.428;13.302;2022-09-09T14:21:57;33.90;70.40
35796;DHT22;21916;52.428;13.302;2022-09-09T14:24:23;34.20;70.60
35796;DHT22;21916;52.428;13.302;2022-09-09T14:26:50;33.50;71.30
35796;DHT22;21916;52.428;13.302;2022-09-09T14:29:17;31.60;72.20
35796;DHT22;21916;52.428;13.302;2022-09-09T14:31:43;30.00;76.70
35796;DHT22;21916;52.428;13.302;2022-09-09T14:34:08;29.30;79.00
35796;DHT22;21916;52.428;13.302;2022-09-09T14:36:35;28.10;82.00
35796;DHT22;21916;52.428;13.302;2022-09-09T14:39:01;26.60;84.10
35796;DHT22;21916;52.428;13.302;2022-09-09T14:41:27;25.90;88.50
35796;DHT22;21916;52.428;13.302;2022-09-09T14:43:55;25.90;88.20
35796;DHT22;21916;52.428;13.302;2022-09-09T14:46:21;25.70;87.00
35796;DHT22;21916;52.428;13.302;2022-09-09T14:48:47;25.60;88.00
35796;DHT22;21916;52.428;13.302;2022-09-09T14:51:20;25.40;86.90
35796;DHT22;21916;52.428;13.302;2022-09-09T14:53:54;25.60;85.40
35796;DHT22;21916;52.428;13.302;2022-09-09T14:56:22;25.70;84.90
35796;DHT22;21916;52.428;13.302;2022-09-09T14:58:50;25.90;85.50
35796;DHT22;21916;52.428;13.302;2022-09-09T15:01:18;26.00;84.90
35796;DHT22;21916;52.428;13.302;2022-09-09T15:04:11;26.70;83.50
35796;DHT22;21916;52.428;13.302;2022-09-09T15:06:38;26.70;83.00
35796;DHT22;21916;52.428;13.302;2022-09-09T15:09:05;26.70;83.20
35796;DHT22;21916;52.428;13.302;2022-09-09T15:11:34;26.80;82.90
35796;DHT22;21916;52.428;13.302;2022-09-09T15:14:04;26.40;83.50
35796;DHT22;21916;52.428;13.302;2022-09-09T15:16:30;26.50;84.70
35796;DHT22;21916;52.428;13.302;2022-09-09T15:18:59;27.10;85.60
35796;DHT22;21916;52.428;13.302;2022-09-09T15:21:27;29.20;82.50
35796;DHT22;21916;52.428;13.302;2022-09-09T15:23:55;31.40;80.20
35796;DHT22;21916;52.428;13.302;2022-09-09T15:26:21;33.30;76.80
35796;DHT22;21916;52.428;13.302;2022-09-09T15:28:47;34.00;73.60
35796;DHT22;21916;52.428;13.302;2022-09-09T15:31:20;32.80;73.60
35796;DHT22;21916;52.428;13.302;2022-09-09T15:33:53;32.00;74.60
35796;DHT22;21916;52.428;13.302;2022-09-09T15:36:21;31.40;76.50
35796;DHT22;21916;52.428;13.302;2022-09-09T15:38:49;31.60;76.00
35796;DHT22;21916;52.428;13.302;2022-09-09T15:41:16;32.30;74.90
35796;DHT22;21916;52.428;13.302;2022-09-09T15:43:50;33.50;73.70
35796;DHT22;21916;52.428;13.302;2022-09-09T15:48:43;34.90;71.20
35796;DHT22;21916;52.428;13.302;2022-09-09T15:51:12;35.60;70.70
35796;DHT22;21916;52.428;13.302;2022-09-09T15:53:40;36.00;69.30
35796;DHT22;21916;52.428;13.302;2022-09-09T15:56:06;34.40;69.70
35796;DHT22;21916;52.428;13.302;2022-09-09T15:58:33;33.60;70.10
35796;DHT22;21916;52.428;13.302;2022-09-09T16:01:04;33.10;70.60
35796;DHT22;21916;52.428;13.302;2022-09-09T16:03:34;32.60;71.70
35796;DHT22;21916;52.428;13.302;2022-09-09T16:06:00;31.20;72.60
35796;DHT22;21916;52.428;13.302;2022-09-09T16:08:35;31.00;73.10
35796;DHT22;21916;52.428;13.302;2022-09-09T16:11:10;30.30;72.90
35796;DHT22;21916;52.428;13.302;2022-09-09T16:13:36;29.80;73.90
35796;DHT22;21916;52.428;13.302;2022-09-09T16:16:03;29.00;75.60
35796;DHT22;21916;52.428;13.302;2022-09-09T16:18:38;27.80;76.50
35796;DHT22;21916;52.428;13.302;2022-09-09T16:21:05;26.40;80.20
35796;DHT22;21916;52.428;13.302;2022-09-09T16:23:32;25.80;81.50
35796;DHT22;21916;52.428;13.302;2022-09-09T16:25:58;25.30;83.90
35796;DHT22;21916;52.428;13.302;2022-09-09T16:28:24;24.80;85.20
35796;DHT22;21916;52.428;13.302;2022-09-09T16:30:50;24.30;87.10
35796;DHT22;21916;52.428;13.302;2022-09-09T16:33:16;24.00;87.30
35796;DHT22;21916;52.428;13.302;2022-09-09T16:35:43;23.90;87.90
35796;DHT22;21916;52.428;13.302;2022-09-09T16:38:10;23.80;89.00
35796;DHT22;21916;52.428;13.302;2022-09-09T16:40:37;23.80;89.20
35796;DHT22;21916;52.428;13.302;2022-09-09T16:43:05;23.60;90.10
35796;DHT22;21916;52.428;13.302;2022-09-09T16:45:32;23.40;92.00
35796;DHT22;21916;52.428;13.302;2022-09-09T16:47:59;23.40;93.00
35796;DHT22;21916;52.428;13.302;2022-09-09T16:50:26;23.10;94.00
35796;DHT22;21916;52.428;13.302;2022-09-09T16:52:52;23.20;94.40
35796;DHT22;21916;52.428;13.302;2022-09-09T16:55:19;23.10;95.20
35796;DHT22;21916;52.428;13.302;2022-09-09T16:57:47;23.10;95.80
35796;DHT22;21916;52.428;13.302;2022-09-09T17:00:16;23.00;95.60
35796;DHT22;21916;52.428;13.302;2022-09-09T17:02:43;22.80;95.80
35796;DHT22;21916;52.428;13.302;2022-09-09T17:05:09;22.70;96.30
35796;DHT22;21916;52.428;13.302;2022-09-09T17:07:35;22.60;96.50
35796;DHT22;21916;52.428;13.302;2022-09-09T17:10:01;22.30;96.50
35796;DHT22;21916;52.428;13.302;2022-09-09T17:12:31;22.00;96.90
35796;DHT22;21916;52.428;13.302;2022-09-09T17:14:58;21.90;97.60
35796;DHT22;21916;52.428;13.302;2022-09-09T17:17:25;21.70;98.10
35796;DHT22;21916;52.428;13.302;2022-09-09T17:19:52;21.70;98.60
35796;DHT22;21916;52.428;13.302;2022-09-09T17:22:18;21.50;98.90
35796;DHT22;21916;52.428;13.302;2022-09-09T17:24:46;21.50;99.30
35796;DHT22;21916;52.428;13.302;2022-09-09T17:27:12;21.50;99.90
35796;DHT22;21916;52.428;13.302;2022-09-09T17:29:39;21.50;99.90
35796;DHT22;21916;52.428;13.302;2022-09-09T17:32:05;21.30;99.90
35796;DHT22;21916;52.428;13.302;2022-09-09T17:34:33;21.10;99.90
35796;DHT22;21916;52.428;13.302;2022-09-09T17:36:59;21.00;99.90
35796;DHT22;21916;52.428;13.302;2022-09-09T17:39:25;20.80;99.90
35796;DHT22;21916;52.428;13.302;2022-09-09T17:41:52;20.60;99.90
35796;DHT22;21916;52.428;13.302;2022-09-09T17:44:18;20.30;99.90
35796;DHT22;21916;52.428;13.302;2022-09-09T17:46:45;20.10;99.90
35796;DHT22;21916;52.428;13.302;2022-09-09T17:49:15;20.00;99.90